createdAt,value
2023-04-04T00:01:49.588Z,1.90
2023-04-04T00:06:56.059Z,1.88
2023-04-04T00:12:01.640Z,1.86
2023-04-04T00:17:07.465Z,1.86
2023-04-04T00:22:14.708Z,1.82
2023-04-04T00:27:20.388Z,1.72
2023-04-04T00:32:26.294Z,1.64
2023-04-04T00:37:32.041Z,1.61
2023-04-04T00:42:37.782Z,1.66
2023-04-04T00:47:45.663Z,1.61
2023-04-04T00:52:51.634Z,1.56
2023-04-04T00:57:57.405Z,1.54
2023-04-04T01:03:04.057Z,1.51
2023-04-04T01:08:09.662Z,1.47
2023-04-04T01:13:16.597Z,1.50
2023-04-04T01:18:25.054Z,1.48
2023-04-04T01:23:48.535Z,1.43
2023-04-04T01:28:58.908Z,1.38
2023-04-04T01:34:16.831Z,1.32
2023-04-04T01:39:28.088Z,1.21
2023-04-04T01:44:33.984Z,1.11
2023-04-04T01:49:39.765Z,1.10
2023-04-04T01:54:45.463Z,0.99
2023-04-04T01:59:51.137Z,0.90
2023-04-04T02:04:56.836Z,0.94
2023-04-04T02:10:02.433Z,0.80
2023-04-04T02:15:09.027Z,0.73
2023-04-04T02:20:14.505Z,0.70
2023-04-04T02:25:20.861Z,0.69
2023-04-04T02:30:27.304Z,0.75
2023-04-04T02:35:33.172Z,0.76
2023-04-04T02:40:40.960Z,0.81
2023-04-04T02:45:51.463Z,0.85
2023-04-04T02:50:58.839Z,0.71
2023-04-04T02:56:05.354Z,0.58
2023-04-04T03:01:11.118Z,0.52
2023-04-04T03:06:17.067Z,0.49
2023-04-04T03:11:24.318Z,0.40
2023-04-04T03:16:31.303Z,0.42
2023-04-04T03:21:37.062Z,0.45
2023-04-04T03:26:42.624Z,0.48
2023-04-04T03:31:48.746Z,0.40
2023-04-04T03:36:54.461Z,0.32
2023-04-04T03:42:01.484Z,0.36
2023-04-04T03:47:07.184Z,0.36
2023-04-04T03:52:13.032Z,0.44
2023-04-04T03:57:18.790Z,0.45
2023-04-04T04:02:24.442Z,0.30
2023-04-04T04:07:30.090Z,0.34
2023-04-04T04:12:36.799Z,0.42
2023-04-04T04:17:42.734Z,0.50
2023-04-04T04:22:51.015Z,0.55
2023-04-04T04:27:58.082Z,0.60
2023-04-04T04:33:04.584Z,0.73
2023-04-04T04:38:12.877Z,0.64
2023-04-04T04:43:19.082Z,0.59
2023-04-04T04:48:26.344Z,0.64
2023-04-04T04:53:33.549Z,0.68
2023-04-04T04:58:39.072Z,0.79
2023-04-04T05:03:46.870Z,0.93
2023-04-04T05:08:54.062Z,1.00
2023-04-04T05:14:02.075Z,0.93
2023-04-04T05:19:09.279Z,1.08
2023-04-04T05:24:17.518Z,1.21
2023-04-04T05:29:23.152Z,1.29
2023-04-04T05:34:30.216Z,1.41
2023-04-04T05:39:36.757Z,1.54
2023-04-04T05:44:44.704Z,1.67
2023-04-04T05:49:50.692Z,1.84
2023-04-04T05:54:57.564Z,2.06
2023-04-04T06:00:06.227Z,2.28
2023-04-04T06:05:13.541Z,2.46
2023-04-04T06:10:19.294Z,2.71
2023-04-04T06:15:25.594Z,2.85
2023-04-04T06:20:31.327Z,2.98
2023-04-04T06:25:39.981Z,3.09
2023-04-04T06:30:46.142Z,3.23
2023-04-04T06:35:53.251Z,3.34
2023-04-04T06:40:59.542Z,3.53
2023-04-04T06:46:05.542Z,3.68
2023-04-04T06:51:11.654Z,3.94
2023-04-04T06:56:18.855Z,3.87
2023-04-04T07:01:24.457Z,3.81
2023-04-04T07:06:29.990Z,3.89
2023-04-04T07:11:35.564Z,4.10
2023-04-04T07:16:41.054Z,4.35
2023-04-04T07:21:46.690Z,4.35
2023-04-04T07:26:52.440Z,4.50
2023-04-04T07:31:58.074Z,4.59
2023-04-04T07:37:03.895Z,4.78
2023-04-04T07:42:18.543Z,4.96
2023-04-04T07:47:24.087Z,5.43
2023-04-04T07:52:29.692Z,5.48
2023-04-04T07:57:39.831Z,5.70
2023-04-04T08:02:45.798Z,5.64
2023-04-04T08:07:51.498Z,5.36
2023-04-04T08:12:59.159Z,5.92
2023-04-04T08:18:04.840Z,6.28
2023-04-04T08:23:10.975Z,6.40
2023-04-04T08:28:16.500Z,6.57
2023-04-04T08:33:34.255Z,6.21
2023-04-04T08:38:32.992Z,6.30
2023-04-04T08:43:41.645Z,6.42
2023-04-04T08:48:48.786Z,6.38
2023-04-04T08:53:55.373Z,6.38
2023-04-04T08:59:01.123Z,6.59
2023-04-04T09:04:07.497Z,6.61
2023-04-04T09:09:14.735Z,6.64
2023-04-04T09:14:22.297Z,6.62
2023-04-04T09:19:27.738Z,6.69
2023-04-04T09:24:43.806Z,6.94
2023-04-04T09:29:50.047Z,6.60
2023-04-04T09:34:56.616Z,6.88
2023-04-04T09:40:03.079Z,6.97
2023-04-04T09:45:11.674Z,6.97
2023-04-04T09:50:24.933Z,6.72
2023-04-04T09:55:36.647Z,7.12
2023-04-04T10:00:44.976Z,7.43
2023-04-04T10:06:06.987Z,7.16
2023-04-04T10:11:12.829Z,7.13
2023-04-04T10:16:20.111Z,7.24
2023-04-04T10:21:25.728Z,7.35
2023-04-04T10:26:31.450Z,7.50
2023-04-04T10:31:41.162Z,7.64
2023-04-04T10:37:13.153Z,7.46
2023-04-04T10:42:20.133Z,8.04
2023-04-04T10:47:29.501Z,8.41
2023-04-04T10:52:36.335Z,7.99
2023-04-04T10:57:44.890Z,7.79
2023-04-04T11:02:57.080Z,7.96
2023-04-04T11:08:08.556Z,8.04
2023-04-04T11:13:21.810Z,8.22
2023-04-04T11:18:42.420Z,8.38
2023-04-04T11:24:02.274Z,8.07
2023-04-04T11:29:12.886Z,8.07
2023-04-04T11:34:32.751Z,7.83
2023-04-04T11:39:41.302Z,8.17
2023-04-04T11:45:04.432Z,8.47
2023-04-04T11:50:12.767Z,8.19
2023-04-04T11:55:20.147Z,8.38
2023-04-04T12:00:36.057Z,8.75
2023-04-04T12:05:44.023Z,8.60
2023-04-04T12:10:51.169Z,8.43
2023-04-04T12:15:57.831Z,8.36
2023-04-04T12:21:03.704Z,8.60
2023-04-04T12:26:11.373Z,8.82
2023-04-04T12:31:17.942Z,8.67
2023-04-04T12:36:29.918Z,8.26
2023-04-04T12:41:36.929Z,8.40
2023-04-04T12:46:47.789Z,8.42
2023-04-04T12:51:55.288Z,8.49
2023-04-04T12:57:04.204Z,8.70
2023-04-04T13:02:12.515Z,8.82
2023-04-04T13:07:28.829Z,8.47
2023-04-04T13:12:57.128Z,9.11
2023-04-04T13:18:05.769Z,9.43
2023-04-04T13:23:11.659Z,9.47
2023-04-04T13:28:17.337Z,9.41
2023-04-04T13:33:22.835Z,9.47
2023-04-04T13:38:29.899Z,9.48
2023-04-04T13:43:35.488Z,9.19
2023-04-04T13:48:42.010Z,9.63
2023-04-04T13:53:49.277Z,9.44
2023-04-04T13:58:54.907Z,8.56
2023-04-04T14:04:05.261Z,8.25
2023-04-04T14:09:07.756Z,8.08
2023-04-04T14:14:13.369Z,8.24
2023-04-04T14:19:18.832Z,8.64
2023-04-04T14:24:24.671Z,8.64
2023-04-04T14:29:30.167Z,9.08
2023-04-04T14:34:35.659Z,8.64
2023-04-04T14:39:41.098Z,8.55
2023-04-04T14:44:46.706Z,8.45
2023-04-04T14:49:54.189Z,8.43
2023-04-04T14:55:01.094Z,8.38
2023-04-04T15:00:08.009Z,8.36
2023-04-04T15:05:14.504Z,8.68
2023-04-04T15:10:20.076Z,8.76
2023-04-04T15:15:29.121Z,8.91
2023-04-04T15:20:37.986Z,9.14
2023-04-04T15:25:43.539Z,8.89
2023-04-04T15:30:49.174Z,8.95
2023-04-04T15:35:54.774Z,9.12
2023-04-04T15:41:00.665Z,8.89
2023-04-04T15:46:06.643Z,8.87
2023-04-04T15:51:12.619Z,8.95
2023-04-04T15:56:18.039Z,8.76
2023-04-04T16:01:24.202Z,9.04
2023-04-04T16:06:31.343Z,9.05
2023-04-04T16:11:37.231Z,9.16
2023-04-04T16:16:42.871Z,9.32
2023-04-04T16:21:49.452Z,9.33
2023-04-04T16:26:54.906Z,9.26
2023-04-04T16:32:00.683Z,9.33
2023-04-04T16:37:06.557Z,8.90
2023-04-04T16:42:12.081Z,8.42
2023-04-04T16:47:17.519Z,8.20
2023-04-04T16:52:23.162Z,8.10
2023-04-04T16:57:28.808Z,7.87
2023-04-04T17:02:34.457Z,7.65
2023-04-04T17:07:40.078Z,7.67
2023-04-04T17:12:45.895Z,7.42
2023-04-04T17:17:52.201Z,7.35
2023-04-04T17:22:57.941Z,7.19
2023-04-04T17:28:04.607Z,7.17
2023-04-04T17:33:10.189Z,7.03
2023-04-04T17:38:16.016Z,6.88
2023-04-04T17:43:22.234Z,6.81
2023-04-04T17:48:29.726Z,6.66
2023-04-04T17:53:35.162Z,6.74
2023-04-04T17:58:41.935Z,6.69
2023-04-04T18:03:47.835Z,6.58
2023-04-04T18:08:53.473Z,6.55
2023-04-04T18:13:59.065Z,6.40
2023-04-04T18:19:04.604Z,6.29
2023-04-04T18:24:11.974Z,6.28
2023-04-04T18:29:17.666Z,6.20
2023-04-04T18:34:23.178Z,6.10
2023-04-04T18:39:29.253Z,5.87
2023-04-04T18:44:35.032Z,5.85
2023-04-04T18:49:41.009Z,5.73
2023-04-04T18:54:47.194Z,5.66
2023-04-04T18:59:52.862Z,5.51
2023-04-04T19:05:00.968Z,5.40
2023-04-04T19:10:08.177Z,5.20
2023-04-04T19:15:13.850Z,5.20
2023-04-04T19:20:19.917Z,4.82
2023-04-04T19:25:25.707Z,4.82
2023-04-04T19:30:49.136Z,4.63
2023-04-04T19:36:01.209Z,4.63
2023-04-04T19:41:32.439Z,4.40
2023-04-04T19:46:38.160Z,4.34
2023-04-04T19:51:57.652Z,4.36
2023-04-04T19:57:09.538Z,4.35
2023-04-04T20:02:39.104Z,4.25
2023-04-04T20:07:44.876Z,4.30
2023-04-04T20:12:50.573Z,4.29
2023-04-04T20:17:56.143Z,4.49
2023-04-04T20:23:03.884Z,4.54
2023-04-04T20:28:09.638Z,4.58
2023-04-04T20:33:39.211Z,4.68
2023-04-04T20:38:45.163Z,4.74
2023-04-04T20:43:53.286Z,4.69
2023-04-04T20:49:00.261Z,4.80
2023-04-04T20:54:08.209Z,4.82
2023-04-04T20:59:34.668Z,4.82
2023-04-04T21:04:42.145Z,4.76
2023-04-04T21:09:47.704Z,4.75
2023-04-04T21:14:53.360Z,4.77
2023-04-04T21:19:59.235Z,4.74
2023-04-04T21:25:07.813Z,4.87
2023-04-04T21:30:16.269Z,4.85
2023-04-04T21:35:24.743Z,4.88
2023-04-04T21:40:31.665Z,4.99
2023-04-04T21:45:37.081Z,5.27
2023-04-04T21:50:42.686Z,5.07
2023-04-04T21:55:48.403Z,5.23
2023-04-04T22:00:53.939Z,5.23
2023-04-04T22:05:59.610Z,5.23
2023-04-04T22:11:05.993Z,5.26
2023-04-04T22:16:13.114Z,5.26
2023-04-04T22:21:21.106Z,5.26
2023-04-04T22:26:31.122Z,5.26
2023-04-04T22:31:38.018Z,5.09
2023-04-04T22:36:44.134Z,5.19
2023-04-04T22:41:49.800Z,5.10
2023-04-04T22:46:56.961Z,5.15
2023-04-04T22:52:04.037Z,5.06
2023-04-04T22:57:09.725Z,5.14
2023-04-04T23:02:15.177Z,5.11
2023-04-04T23:07:22.107Z,5.11
2023-04-04T23:12:27.711Z,5.13
2023-04-04T23:17:33.719Z,5.13
2023-04-04T23:22:39.993Z,5.19
2023-04-04T23:27:45.841Z,5.19
2023-04-04T23:32:51.526Z,5.26
2023-04-04T23:37:57.038Z,5.23
2023-04-04T23:43:02.536Z,5.37
2023-04-04T23:48:08.229Z,5.47
2023-04-04T23:53:14.271Z,5.47
2023-04-04T23:58:19.702Z,5.51
